Time Latitude Longitude Accuracy (66% radius in meters) Altitude (meters) Speed (km/hour) Bearing (degrees) Battery (%) GPS flag
08:59:23 51.896975 107.662731 1.5 656.29998779297 1.789999961853 358.65966796875 60 1 delete
08:59:20 51.896914 107.662723 1.5 654.5 1.4599999189377 0.6207275390625 60 1 delete
08:59:17 51.896870 107.662721 1.5 654.40002441406 1.4199999570847 0.6756591796875 60 1 delete
08:59:10 51.896770 107.662732 1.5 652.5 1.2599999904633 2.52685546875 60 1 delete
08:59:09 51.896753 107.662734 1.5 652.70001220703 1.4699999094009 5.7568359375 60 1 delete
08:59:04 51.896670 107.662729 1.5 650 1.8299999237061 10.711669921875 60 1 delete
08:58:58 51.896559 107.662724 1.5 648.29998779297 1.1999999284744 355.08361816406 60 1 delete
08:58:49 51.896584 107.662625 1.5 648 2.4299998283386 147.94738769531 60 1 delete
08:58:47 51.896615 107.662587 1.5 648.29998779297 2.1599998474121 141.30615234375 60 1 delete
08:58:44 51.896665 107.662527 1.5 648.5 2.1499998569489 147.49694824219 60 1 delete
08:58:39 51.896746 107.662457 1.5 649.09997558594 2.0199999809265 158.60412597656 60 1 delete
08:58:37 51.896785 107.662433 1.5 649.79998779297 2.25 159.53247070312 60 1 delete
08:58:35 51.896833 107.662409 1.5 649.09997558594 2.7200000286102 156.82434082031 60 1 delete
08:58:30 51.896937 107.662342 1.5 650.90002441406 2.4500000476837 156.42883300781 60 1 delete
08:58:26 51.897031 107.662260 1.5 650.59997558594 2.5499999523163 149.78210449219 60 1 delete
08:58:25 51.897050 107.662248 1.5 650.40002441406 2.3799998760223 153.7646484375 60 1 delete
08:58:22 51.897118 107.662188 1.5 650.70001220703 2.789999961853 152.07824707031 60 1 delete
08:58:17 51.897221 107.662109 1.5 651.5 2.210000038147 155.99487304688 60 1 delete
08:58:14 51.897268 107.662068 1.5 651 1.6100000143051 146.71691894531 60 1 delete
08:58:10 51.897313 107.662014 1.5 651.5 1.2599999904633 118.67980957031 60 1 delete
08:58:04 51.897329 107.661857 1.5 652.70001220703 1.7999999523163 96.954345703125 60 1 delete
08:57:59 51.897341 107.661688 1.5 655.70001220703 1.9799998998642 104.16687011719 60 1 delete
08:57:54 51.897384 107.661553 1.5 655.90002441406 1.7099999189377 127.86437988281 60 1 delete
08:57:53 51.897395 107.661530 1.5 656.59997558594 1.6999999284744 126.5625 60 1 delete
08:57:49 51.897447 107.661421 1.5 656.79998779297 2.1800000667572 138.92211914062 60 1 delete
08:57:44 51.897542 107.661354 1.5 656.29998779297 1.7199999094009 160.43334960938 60 1 delete
08:57:43 51.897561 107.661344 1.5 656.29998779297 1.75 151.22680664062 60 1 delete
08:57:40 51.897626 107.661275 1.5 657.70001220703 2.8099999427795 146.28845214844 60 1 delete
08:57:36 51.897724 107.661226 1.5 657.70001220703 2.9500000476837 181.80725097656 60 1 delete
08:57:33 51.897828 107.661238 1.5 656.70001220703 3.3899998664856 182.61474609375 60 1 delete
08:57:32 51.897862 107.661243 1.5 656.5 3.3699998855591 180.64819335938 60 1 delete
08:57:30 51.897933 107.661240 1.5 657.20001220703 3.460000038147 170.1123046875 60 1 delete
08:57:27 51.898024 107.661202 1.5 658.29998779297 2.2300000190735 156.13220214844 60 1 delete
08:57:23 51.898101 107.661126 1.5 658.70001220703 1.2200000286102 130.70434570312 60 1 delete
08:57:21 51.898118 107.661090 2 659.5 1.1100000143051 90.763549804688 60 1 delete
08:57:17 51.898117 107.660981 1.5 660 1.0299999713898 60.111694335938 60 1 delete
08:57:11 51.898110 107.660822 1.5 661.79998779297 1.0499999523163 41.33056640625 60 1 delete
08:57:10 51.898105 107.660797 1.5 661.90002441406 1.0299999713898 37.210693359375 60 1 delete
08:57:05 51.898055 107.660703 1.5 661.29998779297 0.81999999284744 46.8896484375 60 1 delete
08:57:00 51.898052 107.660603 1.5 661.79998779297 0.91999995708466 134.00573730469 60 1 delete
08:56:57 51.898089 107.660561 1.5 663.90002441406 1.0499999523163 145.72814941406 60 1 delete
08:56:52 51.898168 107.660483 1.5 663.40002441406 0.89999997615814 162.48229980469 60 1 delete
08:56:49 51.898219 107.660465 1.5 663 0 0 60 1 delete
08:56:45 51.898248 107.660410 1.5 663.40002441406 0.76999998092651 122.81066894531 60 1 delete
08:56:39 51.898289 107.660326 1.5 663.20001220703 0 0 60 1 delete
08:56:36 51.898300 107.660269 1.5 662.59997558594 0.62999999523163 76.88232421875 60 1 delete
08:56:28 51.898317 107.660128 2 662.40002441406 0.74000000953674 82.02392578125 60 1 delete
08:56:25 51.898314 107.660074 2 661.59997558594 0.79999995231628 62.891235351562 68 1 delete
08:56:18 51.898354 107.659917 1.5 663.90002441406 1.25 169.08508300781 68 1 delete
08:56:07 51.898396 107.659885 2.5 662.70001220703 0 0 68 1 delete